Terminal Aerodrome Forecast
Issued by NWS North Platte, NE

Home | Current Version | Previous Version | Text Only | Print | Product List | Glossary Off
Versions: 1 2 3 4 5 6 7 8 9 10 11 12 13 14 15 16 17 18 19 20 21 22

203
FTUS43 KLBF 210520
TAFVTN
TAF
KVTN 210520Z 2106/2206 08007KT P6SM VCSH OVC100
     FM210900 06013KT P6SM -SHRASN OVC050
     FM211100 05011KT 4SM -SHSNRA OVC025
      TEMPO 2111/2115 2SM -SHSN OVC015
     FM211500 07009KT P6SM -SHRA OVC015
     FM211800 08010KT P6SM OVC025
     FM220000 10011KT P6SM OVC035
     FM220300 12011KT P6SM OVC050=

USA.gov is the U.S. government's official web portal to all federal, state and local government web resources and services.